sensor_id;sensor_type;location;lat;lon;timestamp;pressure;altitude;pressure_sealevel;temperature;humidity
80678;BME280;70042;52.494;5.502;2023-12-20T00:00:13;101574.53;;;18.76;63.31
80678;BME280;70042;52.494;5.502;2023-12-20T00:02:39;101579.81;;;18.77;63.21
80678;BME280;70042;52.494;5.502;2023-12-20T00:05:05;101580.72;;;18.76;63.62
80678;BME280;70042;52.494;5.502;2023-12-20T00:07:30;101581.59;;;18.77;63.00
80678;BME280;70042;52.494;5.502;2023-12-20T00:09:56;101577.19;;;18.76;63.73
80678;BME280;70042;52.494;5.502;2023-12-20T00:12:21;101579.00;;;18.75;63.51
80678;BME280;70042;52.494;5.502;2023-12-20T00:14:46;101576.34;;;18.74;63.45
80678;BME280;70042;52.494;5.502;2023-12-20T00:17:12;101576.34;;;18.74;63.35
80678;BME280;70042;52.494;5.502;2023-12-20T00:19:37;101573.72;;;18.72;63.59
80678;BME280;70042;52.494;5.502;2023-12-20T00:22:03;101580.81;;;18.72;63.41
80678;BME280;70042;52.494;5.502;2023-12-20T00:24:28;101574.66;;;18.70;63.49
80678;BME280;70042;52.494;5.502;2023-12-20T00:26:53;101580.00;;;18.68;63.29
80678;BME280;70042;52.494;5.502;2023-12-20T00:29:19;101575.56;;;18.69;63.51
80678;BME280;70042;52.494;5.502;2023-12-20T00:31:44;101570.34;;;18.66;63.74
80678;BME280;70042;52.494;5.502;2023-12-20T00:34:10;101572.09;;;18.65;62.99
80678;BME280;70042;52.494;5.502;2023-12-20T00:36:35;101573.88;;;18.64;63.43
80678;BME280;70042;52.494;5.502;2023-12-20T00:39:01;101569.47;;;18.65;63.23
80678;BME280;70042;52.494;5.502;2023-12-20T00:41:26;101564.16;;;18.65;63.36
80678;BME280;70042;52.494;5.502;2023-12-20T00:43:51;101562.41;;;18.64;63.21
80678;BME280;70042;52.494;5.502;2023-12-20T00:46:17;101563.28;;;18.64;63.53
80678;BME280;70042;52.494;5.502;2023-12-20T00:48:42;101562.41;;;18.66;63.33
80678;BME280;70042;52.494;5.502;2023-12-20T00:51:10;101560.63;;;18.64;63.35
80678;BME280;70042;52.494;5.502;2023-12-20T00:53:36;101555.34;;;18.64;63.41
80678;BME280;70042;52.494;5.502;2023-12-20T00:56:01;101557.09;;;18.66;63.59
80678;BME280;70042;52.494;5.502;2023-12-20T00:58:27;101562.41;;;18.64;63.40
80678;BME280;70042;52.494;5.502;2023-12-20T01:00:53;101559.81;;;18.62;63.04
80678;BME280;70042;52.494;5.502;2023-12-20T01:03:19;101566.88;;;18.60;63.01
80678;BME280;70042;52.494;5.502;2023-12-20T01:05:44;101556.28;;;18.60;63.61
80678;BME280;70042;52.494;5.502;2023-12-20T01:08:10;101558.09;;;18.58;63.07
80678;BME280;70042;52.494;5.502;2023-12-20T01:10:35;101566.94;;;18.57;63.29
80678;BME280;70042;52.494;5.502;2023-12-20T01:13:00;101555.47;;;18.57;63.33
80678;BME280;70042;52.494;5.502;2023-12-20T01:15:26;101546.63;;;18.58;63.48
80678;BME280;70042;52.494;5.502;2023-12-20T01:17:51;101545.75;;;18.57;63.29
80678;BME280;70042;52.494;5.502;2023-12-20T01:20:17;101545.75;;;18.59;62.87
80678;BME280;70042;52.494;5.502;2023-12-20T01:22:42;101545.75;;;18.59;63.24
80678;BME280;70042;52.494;5.502;2023-12-20T01:25:08;101543.09;;;18.59;62.92
80678;BME280;70042;52.494;5.502;2023-12-20T01:27:33;101542.22;;;18.58;62.93
80678;BME280;70042;52.494;5.502;2023-12-20T01:29:59;101549.28;;;18.56;63.38
80678;BME280;70042;52.494;5.502;2023-12-20T01:32:24;101552.81;;;18.57;63.28
80678;BME280;70042;52.494;5.502;2023-12-20T01:34:49;101552.81;;;18.57;62.72
80678;BME280;70042;52.494;5.502;2023-12-20T01:37:16;101549.28;;;18.56;62.63
80678;BME280;70042;52.494;5.502;2023-12-20T01:39:41;101556.41;;;18.54;63.06
80678;BME280;70042;52.494;5.502;2023-12-20T01:42:07;101556.41;;;18.54;63.02
80678;BME280;70042;52.494;5.502;2023-12-20T01:44:32;101553.75;;;18.54;62.80
80678;BME280;70042;52.494;5.502;2023-12-20T01:46:57;101546.72;;;18.53;62.61
80678;BME280;70042;52.494;5.502;2023-12-20T01:49:23;101556.41;;;18.54;63.01
80678;BME280;70042;52.494;5.502;2023-12-20T01:51:49;101558.16;;;18.55;62.69
80678;BME280;70042;52.494;5.502;2023-12-20T01:54:16;101546.69;;;18.55;62.66
80678;BME280;70042;52.494;5.502;2023-12-20T01:56:41;101549.28;;;18.56;62.94
80678;BME280;70042;52.494;5.502;2023-12-20T01:59:07;101544.88;;;18.57;62.66
80678;BME280;70042;52.494;5.502;2023-12-20T02:01:34;101547.56;;;18.55;62.58
80678;BME280;70042;52.494;5.502;2023-12-20T02:04:00;101548.47;;;18.54;62.75
80678;BME280;70042;52.494;5.502;2023-12-20T02:06:29;101561.69;;;18.54;62.93
80678;BME280;70042;52.494;5.502;2023-12-20T02:08:57;101546.72;;;18.53;62.56
80678;BME280;70042;52.494;5.502;2023-12-20T02:11:23;101542.34;;;18.52;62.61
80678;BME280;70042;52.494;5.502;2023-12-20T02:13:48;101530.88;;;18.52;62.33
80678;BME280;70042;52.494;5.502;2023-12-20T02:16:14;101535.28;;;18.51;62.71
80678;BME280;70042;52.494;5.502;2023-12-20T02:18:39;101534.41;;;18.51;62.63
80678;BME280;70042;52.494;5.502;2023-12-20T02:21:05;101533.53;;;18.50;62.57
80678;BME280;70042;52.494;5.502;2023-12-20T02:23:31;101530.88;;;18.49;62.52
80678;BME280;70042;52.494;5.502;2023-12-20T02:25:56;101528.22;;;18.50;62.57
80678;BME280;70042;52.494;5.502;2023-12-20T02:28:22;101527.34;;;18.51;62.95
80678;BME280;70042;52.494;5.502;2023-12-20T02:30:48;101528.22;;;18.50;62.63
80678;BME280;70042;52.494;5.502;2023-12-20T02:33:15;101530.88;;;18.50;62.28
80678;BME280;70042;52.494;5.502;2023-12-20T02:35:40;101529.13;;;18.51;62.21
80678;BME280;70042;52.494;5.502;2023-12-20T02:38:06;101525.59;;;18.50;62.42
80678;BME280;70042;52.494;5.502;2023-12-20T02:40:32;101520.28;;;18.50;62.19
80678;BME280;70042;52.494;5.502;2023-12-20T02:42:57;101516.81;;;18.50;62.81
80678;BME280;70042;52.494;5.502;2023-12-20T02:45:22;101505.34;;;18.49;62.43
80678;BME280;70042;52.494;5.502;2023-12-20T02:47:48;101507.97;;;18.48;62.20
80678;BME280;70042;52.494;5.502;2023-12-20T02:50:14;101507.09;;;18.47;62.40
80678;BME280;70042;52.494;5.502;2023-12-20T02:52:39;101507.09;;;18.47;62.36
80678;BME280;70042;52.494;5.502;2023-12-20T02:55:05;101508.00;;;18.46;62.32
80678;BME280;70042;52.494;5.502;2023-12-20T02:57:30;101501.78;;;18.47;62.26
80678;BME280;70042;52.494;5.502;2023-12-20T02:59:55;101495.63;;;18.48;62.42
80678;BME280;70042;52.494;5.502;2023-12-20T03:02:21;101489.47;;;18.49;62.54
80678;BME280;70042;52.494;5.502;2023-12-20T03:04:46;101487.69;;;18.48;62.16
80678;BME280;70042;52.494;5.502;2023-12-20T03:07:12;101489.47;;;18.49;62.42
80678;BME280;70042;52.494;5.502;2023-12-20T03:09:37;101489.41;;;18.51;62.09
80678;BME280;70042;52.494;5.502;2023-12-20T03:12:03;101484.19;;;18.49;62.36
80678;BME280;70042;52.494;5.502;2023-12-20T03:14:29;101484.19;;;18.49;61.88
80678;BME280;70042;52.494;5.502;2023-12-20T03:16:54;101487.69;;;18.48;62.05
80678;BME280;70042;52.494;5.502;2023-12-20T03:19:20;101481.50;;;18.48;62.29
80678;BME280;70042;52.494;5.502;2023-12-20T03:21:45;101483.28;;;18.47;61.90
80678;BME280;70042;52.494;5.502;2023-12-20T03:24:11;101487.69;;;18.47;62.20
80678;BME280;70042;52.494;5.502;2023-12-20T03:26:36;101486.84;;;18.46;61.82
80678;BME280;70042;52.494;5.502;2023-12-20T03:29:01;101489.50;;;18.46;61.82
80678;BME280;70042;52.494;5.502;2023-12-20T03:31:27;101489.50;;;18.46;62.09
80678;BME280;70042;52.494;5.502;2023-12-20T03:33:52;101486.84;;;18.46;61.96
80678;BME280;70042;52.494;5.502;2023-12-20T03:36:19;101485.97;;;18.46;61.72
80678;BME280;70042;52.494;5.502;2023-12-20T03:38:44;101490.38;;;18.44;61.68
80678;BME280;70042;52.494;5.502;2023-12-20T03:41:10;101500.97;;;18.44;62.04
80678;BME280;70042;52.494;5.502;2023-12-20T03:43:36;101507.16;;;18.44;61.69
80678;BME280;70042;52.494;5.502;2023-12-20T03:46:03;101508.06;;;18.43;62.19
80678;BME280;70042;52.494;5.502;2023-12-20T03:48:29;101506.31;;;18.42;62.00
80678;BME280;70042;52.494;5.502;2023-12-20T03:50:55;101504.53;;;18.43;61.78
80678;BME280;70042;52.494;5.502;2023-12-20T03:53:20;101503.66;;;18.42;62.31
80678;BME280;70042;52.494;5.502;2023-12-20T03:55:45;101503.69;;;18.41;62.09
80678;BME280;70042;52.494;5.502;2023-12-20T03:58:11;101503.69;;;18.41;62.05
80678;BME280;70042;52.494;5.502;2023-12-20T04:00:36;101494.00;;;18.40;61.69
80678;BME280;70042;52.494;5.502;2023-12-20T04:03:02;101486.97;;;18.39;62.00
80678;BME280;70042;52.494;5.502;2023-12-20T04:05:27;101486.09;;;18.38;61.68
80678;BME280;70042;52.494;5.502;2023-12-20T04:07:53;101476.44;;;18.37;62.04
80678;BME280;70042;52.494;5.502;2023-12-20T04:10:18;101482.56;;;18.39;61.92
80678;BME280;70042;52.494;5.502;2023-12-20T04:12:43;101472.84;;;18.38;62.19
80678;BME280;70042;52.494;5.502;2023-12-20T04:15:09;101487.84;;;18.39;61.69
80678;BME280;70042;52.494;5.502;2023-12-20T04:17:35;101475.50;;;18.38;61.60
80678;BME280;70042;52.494;5.502;2023-12-20T04:20:01;101469.31;;;18.39;61.97
80678;BME280;70042;52.494;5.502;2023-12-20T04:22:26;101471.09;;;18.39;61.63
80678;BME280;70042;52.494;5.502;2023-12-20T04:24:52;101471.13;;;18.37;62.02
80678;BME280;70042;52.494;5.502;2023-12-20T04:27:17;101469.34;;;18.38;61.60
80678;BME280;70042;52.494;5.502;2023-12-20T04:29:43;101471.09;;;18.39;61.50
80678;BME280;70042;52.494;5.502;2023-12-20T04:32:08;101469.31;;;18.39;61.63
80678;BME280;70042;52.494;5.502;2023-12-20T04:34:33;101456.09;;;18.39;61.69
80678;BME280;70042;52.494;5.502;2023-12-20T04:36:59;101465.78;;;18.40;61.30
80678;BME280;70042;52.494;5.502;2023-12-20T04:39:26;101471.91;;;18.42;61.47
80678;BME280;70042;52.494;5.502;2023-12-20T04:41:52;101463.09;;;18.43;61.24
80678;BME280;70042;52.494;5.502;2023-12-20T04:44:17;101450.75;;;18.42;61.57
80678;BME280;70042;52.494;5.502;2023-12-20T04:46:43;101459.56;;;18.43;61.17
80678;BME280;70042;52.494;5.502;2023-12-20T04:49:08;101454.22;;;18.44;61.25
80678;BME280;70042;52.494;5.502;2023-12-20T04:51:34;101457.78;;;18.43;61.25
80678;BME280;70042;52.494;5.502;2023-12-20T04:54:00;101461.34;;;18.42;61.34
80678;BME280;70042;52.494;5.502;2023-12-20T04:56:25;101461.34;;;18.42;61.19
80678;BME280;70042;52.494;5.502;2023-12-20T04:58:50;101456.03;;;18.42;61.60
80678;BME280;70042;52.494;5.502;2023-12-20T05:01:16;101457.84;;;18.40;61.24
80678;BME280;70042;52.494;5.502;2023-12-20T05:03:42;101461.34;;;18.41;61.43
80678;BME280;70042;52.494;5.502;2023-12-20T05:06:07;101459.63;;;18.38;60.99
80678;BME280;70042;52.494;5.502;2023-12-20T05:08:33;101460.50;;;18.39;61.25
80678;BME280;70042;52.494;5.502;2023-12-20T05:10:58;101465.78;;;18.40;61.11
80678;BME280;70042;52.494;5.502;2023-12-20T05:13:24;101467.50;;;18.41;60.83
80678;BME280;70042;52.494;5.502;2023-12-20T05:15:50;101466.63;;;18.41;61.32
80678;BME280;70042;52.494;5.502;2023-12-20T05:18:16;101452.56;;;18.40;61.01
80678;BME280;70042;52.494;5.502;2023-12-20T05:20:41;101452.56;;;18.40;60.87
80678;BME280;70042;52.494;5.502;2023-12-20T05:23:06;101458.75;;;18.39;60.85
80678;BME280;70042;52.494;5.502;2023-12-20T05:25:32;101455.22;;;18.39;60.95
80678;BME280;70042;52.494;5.502;2023-12-20T05:27:57;101449.03;;;18.38;61.27
80678;BME280;70042;52.494;5.502;2023-12-20T05:30:23;101453.47;;;18.38;61.43
80678;BME280;70042;52.494;5.502;2023-12-20T05:32:48;101460.56;;;18.37;61.12
80678;BME280;70042;52.494;5.502;2023-12-20T05:35:14;101452.63;;;18.37;61.38
80678;BME280;70042;52.494;5.502;2023-12-20T05:37:40;101447.31;;;18.37;61.15
80678;BME280;70042;52.494;5.502;2023-12-20T05:40:06;101449.97;;;18.37;61.18
80678;BME280;70042;52.494;5.502;2023-12-20T05:42:35;101453.47;;;18.38;61.21
80678;BME280;70042;52.494;5.502;2023-12-20T05:45:00;101449.03;;;18.38;61.18
80678;BME280;70042;52.494;5.502;2023-12-20T05:47:26;101445.50;;;18.39;60.85
80678;BME280;70042;52.494;5.502;2023-12-20T05:49:51;101440.22;;;18.39;60.64
80678;BME280;70042;52.494;5.502;2023-12-20T05:52:17;101452.56;;;18.40;60.68
80678;BME280;70042;52.494;5.502;2023-12-20T05:54:42;101442.88;;;18.39;60.85
80678;BME280;70042;52.494;5.502;2023-12-20T05:57:08;101444.63;;;18.39;60.66
80678;BME280;70042;52.494;5.502;2023-12-20T05:59:33;101435.81;;;18.38;61.07
80678;BME280;70042;52.494;5.502;2023-12-20T06:01:58;101449.09;;;18.37;61.26
80678;BME280;70042;52.494;5.502;2023-12-20T06:04:24;101445.56;;;18.36;60.95
80678;BME280;70042;52.494;5.502;2023-12-20T06:06:49;101432.34;;;18.35;60.79
80678;BME280;70042;52.494;5.502;2023-12-20T06:09:15;101427.06;;;18.35;61.17
80678;BME280;70042;52.494;5.502;2023-12-20T06:11:40;101422.66;;;18.35;61.04
80678;BME280;70042;52.494;5.502;2023-12-20T06:14:06;101428.81;;;18.37;60.45
80678;BME280;70042;52.494;5.502;2023-12-20T06:16:31;101430.53;;;18.38;60.91
80678;BME280;70042;52.494;5.502;2023-12-20T06:18:57;101427.88;;;18.38;60.57
80678;BME280;70042;52.494;5.502;2023-12-20T06:21:22;101431.41;;;18.40;60.34
80678;BME280;70042;52.494;5.502;2023-12-20T06:23:47;101428.75;;;18.40;60.74
80678;BME280;70042;52.494;5.502;2023-12-20T06:26:13;101432.28;;;18.39;60.35
80678;BME280;70042;52.494;5.502;2023-12-20T06:28:38;101432.28;;;18.38;60.39
80678;BME280;70042;52.494;5.502;2023-12-20T06:31:04;101434.09;;;18.37;60.65
80678;BME280;70042;52.494;5.502;2023-12-20T06:33:29;101435.00;;;18.36;60.38
80678;BME280;70042;52.494;5.502;2023-12-20T06:35:56;101437.63;;;18.36;61.17
80678;BME280;70042;52.494;5.502;2023-12-20T06:38:22;101433.22;;;18.35;60.60
80678;BME280;70042;52.494;5.502;2023-12-20T06:40:47;101438.53;;;18.35;60.45
80678;BME280;70042;52.494;5.502;2023-12-20T06:43:13;101432.28;;;18.38;60.68
80678;BME280;70042;52.494;5.502;2023-12-20T06:45:38;101429.59;;;18.41;60.85
80678;BME280;70042;52.494;5.502;2023-12-20T06:48:04;101419.94;;;18.40;60.67
80678;BME280;70042;52.494;5.502;2023-12-20T06:50:30;101419.00;;;18.42;60.77
80678;BME280;70042;52.494;5.502;2023-12-20T06:52:55;101430.47;;;18.43;60.67
80678;BME280;70042;52.494;5.502;2023-12-20T06:55:21;101432.16;;;18.45;60.89
80678;BME280;70042;52.494;5.502;2023-12-20T06:57:46;101419.81;;;18.46;60.58
80678;BME280;70042;52.494;5.502;2023-12-20T07:00:12;101417.13;;;18.47;60.68
80678;BME280;70042;52.494;5.502;2023-12-20T07:02:38;101416.22;;;18.48;61.09
80678;BME280;70042;52.494;5.502;2023-12-20T07:05:03;101412.72;;;18.49;60.76
80678;BME280;70042;52.494;5.502;2023-12-20T07:07:29;101421.53;;;18.50;60.97
80678;BME280;70042;52.494;5.502;2023-12-20T07:09:55;101417.09;;;18.50;60.77
80678;BME280;70042;52.494;5.502;2023-12-20T07:12:20;101406.50;;;18.50;60.60
80678;BME280;70042;52.494;5.502;2023-12-20T07:14:46;101401.22;;;18.52;60.61
80678;BME280;70042;52.494;5.502;2023-12-20T07:17:12;101402.91;;;18.54;60.85
80678;BME280;70042;52.494;5.502;2023-12-20T07:19:42;101386.13;;;18.55;61.01
80678;BME280;70042;52.494;5.502;2023-12-20T07:22:07;101393.16;;;18.58;60.67
80678;BME280;70042;52.494;5.502;2023-12-20T07:24:34;101381.69;;;18.57;61.45
80678;BME280;70042;52.494;5.502;2023-12-20T07:27:00;101388.69;;;18.60;61.22
80678;BME280;70042;52.494;5.502;2023-12-20T07:29:26;101383.44;;;18.58;61.06
80678;BME280;70042;52.494;5.502;2023-12-20T07:31:52;101389.56;;;18.60;60.80
80678;BME280;70042;52.494;5.502;2023-12-20T07:34:19;101391.38;;;18.58;60.86
80678;BME280;70042;52.494;5.502;2023-12-20T07:36:45;101390.50;;;18.56;60.89
80678;BME280;70042;52.494;5.502;2023-12-20T07:39:10;101394.09;;;18.55;61.16
80678;BME280;70042;52.494;5.502;2023-12-20T07:41:36;101398.50;;;18.55;60.64
80678;BME280;70042;52.494;5.502;2023-12-20T07:44:01;101406.44;;;18.55;60.58
80678;BME280;70042;52.494;5.502;2023-12-20T07:46:27;101425.84;;;18.55;60.91
80678;BME280;70042;52.494;5.502;2023-12-20T07:48:52;101421.44;;;18.56;60.50
80678;BME280;70042;52.494;5.502;2023-12-20T07:51:17;101426.72;;;18.56;60.48
80678;BME280;70042;52.494;5.502;2023-12-20T07:53:43;101436.44;;;18.55;60.50
80678;BME280;70042;52.494;5.502;2023-12-20T07:56:16;101429.38;;;18.54;60.58
80678;BME280;70042;52.494;5.502;2023-12-20T07:58:41;101434.59;;;18.57;60.10
80678;BME280;70042;52.494;5.502;2023-12-20T08:01:07;101439.88;;;18.59;60.27
80678;BME280;70042;52.494;5.502;2023-12-20T08:03:33;101433.66;;;18.60;60.58
80678;BME280;70042;52.494;5.502;2023-12-20T08:05:58;101440.69;;;18.62;60.32
80678;BME280;70042;52.494;5.502;2023-12-20T08:08:25;101434.50;;;18.63;60.69
80678;BME280;70042;52.494;5.502;2023-12-20T08:10:50;101438.06;;;18.62;60.59
80678;BME280;70042;52.494;5.502;2023-12-20T08:13:15;101436.25;;;18.64;60.76
80678;BME280;70042;52.494;5.502;2023-12-20T08:15:41;101429.19;;;18.63;60.57
80678;BME280;70042;52.494;5.502;2023-12-20T08:18:06;101430.00;;;18.67;60.29
80678;BME280;70042;52.494;5.502;2023-12-20T08:20:32;101440.59;;;18.67;60.21
80678;BME280;70042;52.494;5.502;2023-12-20T08:22:57;101425.59;;;18.68;59.99
80678;BME280;70042;52.494;5.502;2023-12-20T08:25:23;101423.81;;;18.68;59.99
80678;BME280;70042;52.494;5.502;2023-12-20T08:27:48;101417.59;;;18.69;60.57
80678;BME280;70042;52.494;5.502;2023-12-20T08:30:14;101418.47;;;18.70;60.23
80678;BME280;70042;52.494;5.502;2023-12-20T08:32:42;101420.22;;;18.71;60.04
80678;BME280;70042;52.494;5.502;2023-12-20T08:35:07;101415.78;;;18.73;60.19
80678;BME280;70042;52.494;5.502;2023-12-20T08:37:34;101406.94;;;18.72;60.19
80678;BME280;70042;52.494;5.502;2023-12-20T08:40:01;101420.16;;;18.74;60.07
80678;BME280;70042;52.494;5.502;2023-12-20T08:42:26;101416.66;;;18.73;60.33
80678;BME280;70042;52.494;5.502;2023-12-20T08:44:56;101426.34;;;18.74;60.15
80678;BME280;70042;52.494;5.502;2023-12-20T08:47:22;101430.75;;;18.74;59.74
80678;BME280;70042;52.494;5.502;2023-12-20T08:49:48;101437.81;;;18.73;60.28
80678;BME280;70042;52.494;5.502;2023-12-20T08:52:13;101417.53;;;18.74;60.38
80678;BME280;70042;52.494;5.502;2023-12-20T08:54:39;101418.41;;;18.73;59.97
80678;BME280;70042;52.494;5.502;2023-12-20T08:57:04;101421.06;;;18.73;60.09
80678;BME280;70042;52.494;5.502;2023-12-20T08:59:32;101420.19;;;18.72;60.06
80678;BME280;70042;52.494;5.502;2023-12-20T09:01:58;101410.47;;;18.73;59.56
80678;BME280;70042;52.494;5.502;2023-12-20T09:04:23;101426.34;;;18.74;59.47
80678;BME280;70042;52.494;5.502;2023-12-20T09:06:49;101424.59;;;18.73;59.52
80678;BME280;70042;52.494;5.502;2023-12-20T09:09:14;101430.75;;;18.74;59.66
80678;BME280;70042;52.494;5.502;2023-12-20T09:11:40;101423.69;;;18.74;59.50
80678;BME280;70042;52.494;5.502;2023-12-20T09:14:06;101421.00;;;18.76;60.01
80678;BME280;70042;52.494;5.502;2023-12-20T09:16:31;101427.22;;;18.75;59.53
80678;BME280;70042;52.494;5.502;2023-12-20T09:18:57;101415.72;;;18.76;60.01
80678;BME280;70042;52.494;5.502;2023-12-20T09:21:23;101428.09;;;18.75;59.97
80678;BME280;70042;52.494;5.502;2023-12-20T09:23:49;101412.16;;;18.77;59.70
80678;BME280;70042;52.494;5.502;2023-12-20T09:26:14;101427.22;;;18.75;59.98
80678;BME280;70042;52.494;5.502;2023-12-20T09:28:39;101428.09;;;18.75;60.01
80678;BME280;70042;52.494;5.502;2023-12-20T09:31:05;101424.56;;;18.75;60.13
80678;BME280;70042;52.494;5.502;2023-12-20T09:33:32;101430.75;;;18.74;60.17
80678;BME280;70042;52.494;5.502;2023-12-20T09:35:57;101436.94;;;18.73;60.27
80678;BME280;70042;52.494;5.502;2023-12-20T09:38:23;101429.00;;;18.73;59.86
80678;BME280;70042;52.494;5.502;2023-12-20T09:40:48;101429.88;;;18.75;60.15
80678;BME280;70042;52.494;5.502;2023-12-20T09:43:15;101427.22;;;18.73;60.13
80678;BME280;70042;52.494;5.502;2023-12-20T09:45:46;101423.72;;;18.73;59.70
80678;BME280;70042;52.494;5.502;2023-12-20T09:48:12;101422.91;;;18.69;60.22
80678;BME280;70042;52.494;5.502;2023-12-20T09:50:40;101423.78;;;18.70;60.18
80678;BME280;70042;52.494;5.502;2023-12-20T09:53:10;101429.06;;;18.70;59.58
80678;BME280;70042;52.494;5.502;2023-12-20T09:55:38;101450.25;;;18.70;60.17
80678;BME280;70042;52.494;5.502;2023-12-20T09:58:03;101452.94;;;18.68;60.30
80678;BME280;70042;52.494;5.502;2023-12-20T10:00:29;101445.88;;;18.69;60.09
80678;BME280;70042;52.494;5.502;2023-12-20T10:02:58;101456.41;;;18.70;60.01
80678;BME280;70042;52.494;5.502;2023-12-20T10:05:33;101456.41;;;18.72;59.95
80678;BME280;70042;52.494;5.502;2023-12-20T10:07:59;101450.16;;;18.74;60.20
80678;BME280;70042;52.494;5.502;2023-12-20T10:10:26;101447.53;;;18.74;59.54
80678;BME280;70042;52.494;5.502;2023-12-20T10:15:28;101450.91;;;18.81;59.72
80678;BME280;70042;52.494;5.502;2023-12-20T10:17:53;101439.38;;;18.83;60.00
80678;BME280;70042;52.494;5.502;2023-12-20T10:20:20;101446.38;;;18.86;59.37
80678;BME280;70042;52.494;5.502;2023-12-20T10:22:46;101440.22;;;18.85;59.38
80678;BME280;70042;52.494;5.502;2023-12-20T10:25:14;101427.91;;;18.84;59.72
80678;BME280;70042;52.494;5.502;2023-12-20T10:27:40;101440.22;;;18.85;59.95
80678;BME280;70042;52.494;5.502;2023-12-20T10:30:06;101422.53;;;18.87;59.85
80678;BME280;70042;52.494;5.502;2023-12-20T10:32:31;101426.97;;;18.87;59.92
80678;BME280;70042;52.494;5.502;2023-12-20T10:34:57;101418.97;;;18.90;59.68
80678;BME280;70042;52.494;5.502;2023-12-20T10:37:24;101430.44;;;18.89;59.74
80678;BME280;70042;52.494;5.502;2023-12-20T10:39:51;101424.19;;;18.91;59.71
80678;BME280;70042;52.494;5.502;2023-12-20T10:42:21;101418.06;;;18.91;59.77
80678;BME280;70042;52.494;5.502;2023-12-20T10:44:47;101409.25;;;18.89;59.74
80678;BME280;70042;52.494;5.502;2023-12-20T10:47:13;101407.50;;;18.89;59.44
80678;BME280;70042;52.494;5.502;2023-12-20T10:49:39;101413.59;;;18.91;59.62
80678;BME280;70042;52.494;5.502;2023-12-20T10:52:06;101414.50;;;18.92;59.59
80678;BME280;70042;52.494;5.502;2023-12-20T10:54:32;101410.97;;;18.91;59.91
80678;BME280;70042;52.494;5.502;2023-12-20T10:56:58;101413.66;;;18.90;59.93
80678;BME280;70042;52.494;5.502;2023-12-20T10:59:27;101414.50;;;18.92;59.64
80678;BME280;70042;52.494;5.502;2023-12-20T11:01:55;101405.66;;;18.93;59.71
80678;BME280;70042;52.494;5.502;2023-12-20T11:04:31;101400.38;;;18.91;59.56
80678;BME280;70042;52.494;5.502;2023-12-20T11:09:41;101405.72;;;18.90;59.72
80678;BME280;70042;52.494;5.502;2023-12-20T11:12:43;101397.72;;;18.91;59.73
80678;BME280;70042;52.494;5.502;2023-12-20T11:15:07;101391.59;;;18.91;59.41
80678;BME280;70042;52.494;5.502;2023-12-20T11:17:33;101388.94;;;18.91;59.87
80678;BME280;70042;52.494;5.502;2023-12-20T11:22:29;101371.25;;;18.91;59.86
80678;BME280;70042;52.494;5.502;2023-12-20T11:25:00;101387.13;;;18.91;60.02
80678;BME280;70042;52.494;5.502;2023-12-20T11:27:27;101381.00;;;18.91;60.17
80678;BME280;70042;52.494;5.502;2023-12-20T11:29:54;101375.69;;;18.91;60.14
80678;BME280;70042;52.494;5.502;2023-12-20T11:35:01;101389.75;;;18.93;59.74
80678;BME280;70042;52.494;5.502;2023-12-20T11:37:30;101387.13;;;18.93;59.77
80678;BME280;70042;52.494;5.502;2023-12-20T11:40:11;101384.47;;;18.93;59.94
80678;BME280;70042;52.494;5.502;2023-12-20T11:42:40;101375.69;;;18.91;59.61
80678;BME280;70042;52.494;5.502;2023-12-20T11:45:10;101385.34;;;18.93;59.62
80678;BME280;70042;52.494;5.502;2023-12-20T11:47:35;101379.09;;;18.96;59.84
80678;BME280;70042;52.494;5.502;2023-12-20T11:50:01;101372.94;;;18.95;60.16
80678;BME280;70042;52.494;5.502;2023-12-20T11:52:30;101368.50;;;18.96;60.28
80678;BME280;70042;52.494;5.502;2023-12-20T11:54:56;101371.06;;;19.00;60.22
80678;BME280;70042;52.494;5.502;2023-12-20T11:57:22;101363.06;;;19.02;60.14
80678;BME280;70042;52.494;5.502;2023-12-20T11:59:47;101352.41;;;19.05;59.75
80678;BME280;70042;52.494;5.502;2023-12-20T12:02:13;101359.47;;;19.06;59.98
80678;BME280;70042;52.494;5.502;2023-12-20T12:04:41;101371.78;;;19.07;60.33
80678;BME280;70042;52.494;5.502;2023-12-20T12:07:07;101369.13;;;19.07;60.23
80678;BME280;70042;52.494;5.502;2023-12-20T12:09:32;101366.47;;;19.07;60.41
80678;BME280;70042;52.494;5.502;2023-12-20T12:11:58;101365.59;;;19.08;60.15
80678;BME280;70042;52.494;5.502;2023-12-20T12:14:24;101360.34;;;19.06;60.01
80678;BME280;70042;52.494;5.502;2023-12-20T12:16:50;101353.22;;;19.08;60.44
80678;BME280;70042;52.494;5.502;2023-12-20T12:19:25;101353.25;;;19.07;60.03
80678;BME280;70042;52.494;5.502;2023-12-20T12:21:51;101341.75;;;19.08;60.05
80678;BME280;70042;52.494;5.502;2023-12-20T12:24:29;101346.16;;;19.07;59.97
80678;BME280;70042;52.494;5.502;2023-12-20T12:26:57;101337.31;;;19.08;60.30
80678;BME280;70042;52.494;5.502;2023-12-20T12:29:22;101340.84;;;19.09;60.12
80678;BME280;70042;52.494;5.502;2023-12-20T12:31:50;101332.03;;;19.08;59.71
80678;BME280;70042;52.494;5.502;2023-12-20T12:34:15;101324.97;;;19.09;60.10
80678;BME280;70042;52.494;5.502;2023-12-20T12:36:41;101332.91;;;19.09;59.99
80678;BME280;70042;52.494;5.502;2023-12-20T12:39:07;101323.22;;;19.08;60.14
80678;BME280;70042;52.494;5.502;2023-12-20T12:41:32;101311.78;;;19.06;60.30
80678;BME280;70042;52.494;5.502;2023-12-20T12:43:57;101314.44;;;19.06;60.55
80678;BME280;70042;52.494;5.502;2023-12-20T12:46:23;101312.66;;;19.06;60.26
80678;BME280;70042;52.494;5.502;2023-12-20T12:48:49;101308.28;;;19.05;59.83
80678;BME280;70042;52.494;5.502;2023-12-20T12:51:15;101316.22;;;19.05;59.89
80678;BME280;70042;52.494;5.502;2023-12-20T12:53:41;101308.22;;;19.07;59.99